sensor_id;sensor_type;location;lat;lon;timestamp;P1;durP1;ratioP1;P2;durP2;ratioP2
23159;SDS011;11748;50.844;4.396;2023-03-14T00:01:20;6.53;;;1.33;;
23159;SDS011;11748;50.844;4.396;2023-03-14T00:03:47;12.57;;;1.45;;
23159;SDS011;11748;50.844;4.396;2023-03-14T00:06:14;4.32;;;1.08;;
23159;SDS011;11748;50.844;4.396;2023-03-14T00:08:44;7.45;;;1.38;;
23159;SDS011;11748;50.844;4.396;2023-03-14T00:14:09;6.00;;;1.13;;
23159;SDS011;11748;50.844;4.396;2023-03-14T00:16:36;5.68;;;1.38;;
23159;SDS011;11748;50.844;4.396;2023-03-14T00:19:04;7.20;;;1.70;;
23159;SDS011;11748;50.844;4.396;2023-03-14T00:21:36;7.20;;;1.40;;
23159;SDS011;11748;50.844;4.396;2023-03-14T00:29:30;9.57;;;2.20;;
23159;SDS011;11748;50.844;4.396;2023-03-14T00:37:00;6.80;;;1.67;;
23159;SDS011;11748;50.844;4.396;2023-03-14T00:39:27;6.47;;;1.30;;
23159;SDS011;11748;50.844;4.396;2023-03-14T00:42:04;9.32;;;1.60;;
23159;SDS011;11748;50.844;4.396;2023-03-14T00:44:33;5.78;;;1.20;;
23159;SDS011;11748;50.844;4.396;2023-03-14T00:47:01;7.63;;;1.40;;
23159;SDS011;11748;50.844;4.396;2023-03-14T00:49:30;9.80;;;1.40;;
23159;SDS011;11748;50.844;4.396;2023-03-14T00:51:59;8.73;;;1.88;;
23159;SDS011;11748;50.844;4.396;2023-03-14T00:54:30;7.22;;;1.50;;
23159;SDS011;11748;50.844;4.396;2023-03-14T00:56:58;7.10;;;1.77;;
23159;SDS011;11748;50.844;4.396;2023-03-14T00:59:27;7.50;;;1.77;;
23159;SDS011;11748;50.844;4.396;2023-03-14T01:01:54;7.68;;;1.60;;
23159;SDS011;11748;50.844;4.396;2023-03-14T01:04:20;8.70;;;2.30;;
23159;SDS011;11748;50.844;4.396;2023-03-14T01:06:46;11.95;;;2.15;;
23159;SDS011;11748;50.844;4.396;2023-03-14T01:11:43;13.27;;;2.30;;
23159;SDS011;11748;50.844;4.396;2023-03-14T01:14:17;8.77;;;1.98;;
23159;SDS011;11748;50.844;4.396;2023-03-14T01:16:49;8.70;;;2.00;;
23159;SDS011;11748;50.844;4.396;2023-03-14T01:19:15;11.05;;;1.95;;
23159;SDS011;11748;50.844;4.396;2023-03-14T01:24:32;10.30;;;2.28;;
23159;SDS011;11748;50.844;4.396;2023-03-14T01:27:11;10.02;;;1.75;;
23159;SDS011;11748;50.844;4.396;2023-03-14T01:29:40;8.35;;;1.88;;
23159;SDS011;11748;50.844;4.396;2023-03-14T01:32:12;6.55;;;1.70;;
23159;SDS011;11748;50.844;4.396;2023-03-14T01:34:38;11.10;;;1.80;;
23159;SDS011;11748;50.844;4.396;2023-03-14T01:55:09;6.15;;;1.08;;
23159;SDS011;11748;50.844;4.396;2023-03-14T02:03:46;5.93;;;0.90;;
23159;SDS011;11748;50.844;4.396;2023-03-14T02:06:17;2.17;;;0.80;;
23159;SDS011;11748;50.844;4.396;2023-03-14T02:08:48;4.50;;;0.98;;
23159;SDS011;11748;50.844;4.396;2023-03-14T02:11:16;4.93;;;1.00;;
23159;SDS011;11748;50.844;4.396;2023-03-14T02:13:43;4.93;;;1.13;;
23159;SDS011;11748;50.844;4.396;2023-03-14T02:16:10;6.60;;;0.80;;
23159;SDS011;11748;50.844;4.396;2023-03-14T02:18:36;3.83;;;1.15;;
23159;SDS011;11748;50.844;4.396;2023-03-14T02:26:38;5.07;;;0.90;;
23159;SDS011;11748;50.844;4.396;2023-03-14T02:29:11;4.88;;;0.98;;
23159;SDS011;11748;50.844;4.396;2023-03-14T02:34:29;4.43;;;1.13;;
23159;SDS011;11748;50.844;4.396;2023-03-14T02:42:34;2.63;;;0.98;;
23159;SDS011;11748;50.844;4.396;2023-03-14T02:45:27;6.22;;;1.27;;
23159;SDS011;11748;50.844;4.396;2023-03-14T02:47:54;6.80;;;1.20;;
23159;SDS011;11748;50.844;4.396;2023-03-14T02:50:26;5.22;;;1.75;;
23159;SDS011;11748;50.844;4.396;2023-03-14T02:55:49;8.48;;;2.40;;
23159;SDS011;11748;50.844;4.396;2023-03-14T02:58:17;7.90;;;2.67;;
23159;SDS011;11748;50.844;4.396;2023-03-14T03:00:49;9.68;;;2.92;;
23159;SDS011;11748;50.844;4.396;2023-03-14T03:03:16;9.68;;;2.92;;
23159;SDS011;11748;50.844;4.396;2023-03-14T03:05:53;8.88;;;2.65;;
23159;SDS011;11748;50.844;4.396;2023-03-14T03:08:23;11.13;;;2.85;;
23159;SDS011;11748;50.844;4.396;2023-03-14T03:10:54;7.10;;;2.70;;
23159;SDS011;11748;50.844;4.396;2023-03-14T03:15:51;6.95;;;2.65;;
23159;SDS011;11748;50.844;4.396;2023-03-14T03:18:17;6.82;;;2.33;;
23159;SDS011;11748;50.844;4.396;2023-03-14T03:20:51;12.32;;;2.55;;
23159;SDS011;11748;50.844;4.396;2023-03-14T03:28:38;10.30;;;2.53;;
23159;SDS011;11748;50.844;4.396;2023-03-14T03:31:13;9.52;;;2.83;;
23159;SDS011;11748;50.844;4.396;2023-03-14T03:36:08;11.05;;;3.58;;
23159;SDS011;11748;50.844;4.396;2023-03-14T03:38:36;11.50;;;3.50;;
23159;SDS011;11748;50.844;4.396;2023-03-14T03:41:13;9.18;;;3.45;;
23159;SDS011;11748;50.844;4.396;2023-03-14T03:43:44;10.20;;;3.40;;
23159;SDS011;11748;50.844;4.396;2023-03-14T03:51:34;12.10;;;3.80;;
23159;SDS011;11748;50.844;4.396;2023-03-14T03:54:02;8.02;;;3.47;;
23159;SDS011;11748;50.844;4.396;2023-03-14T03:56:31;9.02;;;3.40;;
23159;SDS011;11748;50.844;4.396;2023-03-14T03:59:03;10.13;;;3.38;;
23159;SDS011;11748;50.844;4.396;2023-03-14T04:01:32;6.65;;;2.92;;
23159;SDS011;11748;50.844;4.396;2023-03-14T04:03:59;7.28;;;2.88;;
23159;SDS011;11748;50.844;4.396;2023-03-14T04:06:28;10.45;;;3.15;;
23159;SDS011;11748;50.844;4.396;2023-03-14T04:08:57;6.97;;;3.05;;
23159;SDS011;11748;50.844;4.396;2023-03-14T04:20:19;9.80;;;3.58;;
23159;SDS011;11748;50.844;4.396;2023-03-14T04:23:03;8.50;;;3.25;;
23159;SDS011;11748;50.844;4.396;2023-03-14T04:25:30;8.88;;;3.65;;
23159;SDS011;11748;50.844;4.396;2023-03-14T04:27:59;7.43;;;3.97;;
23159;SDS011;11748;50.844;4.396;2023-03-14T04:30:24;7.05;;;3.85;;
23159;SDS011;11748;50.844;4.396;2023-03-14T04:35:26;6.63;;;3.30;;
23159;SDS011;11748;50.844;4.396;2023-03-14T04:37:53;7.88;;;3.15;;
23159;SDS011;11748;50.844;4.396;2023-03-14T04:40:24;6.78;;;3.15;;
23159;SDS011;11748;50.844;4.396;2023-03-14T04:42:52;12.95;;;3.83;;
23159;SDS011;11748;50.844;4.396;2023-03-14T04:45:30;5.57;;;3.63;;
23159;SDS011;11748;50.844;4.396;2023-03-14T04:53:57;9.93;;;3.92;;
23159;SDS011;11748;50.844;4.396;2023-03-14T04:56:29;6.90;;;3.80;;
23159;SDS011;11748;50.844;4.396;2023-03-14T04:58:58;6.72;;;4.07;;
23159;SDS011;11748;50.844;4.396;2023-03-14T05:01:28;6.82;;;3.55;;
23159;SDS011;11748;50.844;4.396;2023-03-14T05:03:54;8.02;;;3.80;;
23159;SDS011;11748;50.844;4.396;2023-03-14T05:06:20;6.40;;;3.58;;
23159;SDS011;11748;50.844;4.396;2023-03-14T05:08:46;5.25;;;3.20;;
23159;SDS011;11748;50.844;4.396;2023-03-14T05:11:12;8.15;;;2.70;;
23159;SDS011;11748;50.844;4.396;2023-03-14T05:13:40;4.82;;;2.88;;
23159;SDS011;11748;50.844;4.396;2023-03-14T05:16:12;5.80;;;2.75;;
23159;SDS011;11748;50.844;4.396;2023-03-14T05:21:07;7.63;;;2.63;;
23159;SDS011;11748;50.844;4.396;2023-03-14T05:26:04;3.67;;;2.13;;
23159;SDS011;11748;50.844;4.396;2023-03-14T05:31:05;3.83;;;1.58;;
23159;SDS011;11748;50.844;4.396;2023-03-14T05:33:34;3.85;;;2.10;;
23159;SDS011;11748;50.844;4.396;2023-03-14T05:36:06;2.55;;;1.92;;
23159;SDS011;11748;50.844;4.396;2023-03-14T05:38:33;4.53;;;2.00;;
23159;SDS011;11748;50.844;4.396;2023-03-14T05:41:01;4.63;;;1.98;;
23159;SDS011;11748;50.844;4.396;2023-03-14T05:43:31;3.28;;;2.05;;
23159;SDS011;11748;50.844;4.396;2023-03-14T05:48:43;5.15;;;1.98;;
23159;SDS011;11748;50.844;4.396;2023-03-14T05:53:42;4.10;;;2.13;;
23159;SDS011;11748;50.844;4.396;2023-03-14T05:56:13;2.92;;;2.20;;
23159;SDS011;11748;50.844;4.396;2023-03-14T05:58:42;2.40;;;1.90;;
23159;SDS011;11748;50.844;4.396;2023-03-14T06:04:31;5.63;;;2.55;;
23159;SDS011;11748;50.844;4.396;2023-03-14T06:07:13;3.38;;;1.95;;
23159;SDS011;11748;50.844;4.396;2023-03-14T06:09:50;3.67;;;2.40;;
23159;SDS011;11748;50.844;4.396;2023-03-14T06:20:00;4.32;;;2.10;;
23159;SDS011;11748;50.844;4.396;2023-03-14T06:22:39;3.33;;;2.65;;
23159;SDS011;11748;50.844;4.396;2023-03-14T06:25:09;3.30;;;2.30;;
23159;SDS011;11748;50.844;4.396;2023-03-14T06:32:34;4.95;;;2.35;;
23159;SDS011;11748;50.844;4.396;2023-03-14T06:35:03;4.60;;;2.30;;
23159;SDS011;11748;50.844;4.396;2023-03-14T06:37:30;2.88;;;2.08;;
23159;SDS011;11748;50.844;4.396;2023-03-14T06:39:56;3.17;;;2.30;;
23159;SDS011;11748;50.844;4.396;2023-03-14T06:42:39;3.72;;;2.38;;
23159;SDS011;11748;50.844;4.396;2023-03-14T06:45:07;3.60;;;2.08;;
23159;SDS011;11748;50.844;4.396;2023-03-14T06:47:40;4.85;;;2.33;;
23159;SDS011;11748;50.844;4.396;2023-03-14T06:52:35;3.83;;;2.20;;
23159;SDS011;11748;50.844;4.396;2023-03-14T06:55:02;2.30;;;1.58;;
23159;SDS011;11748;50.844;4.396;2023-03-14T06:57:31;3.20;;;1.85;;
23159;SDS011;11748;50.844;4.396;2023-03-14T07:02:27;3.30;;;1.70;;
23159;SDS011;11748;50.844;4.396;2023-03-14T07:07:25;5.10;;;2.17;;
23159;SDS011;11748;50.844;4.396;2023-03-14T07:12:23;5.07;;;2.45;;
23159;SDS011;11748;50.844;4.396;2023-03-14T07:14:59;3.42;;;1.90;;
23159;SDS011;11748;50.844;4.396;2023-03-14T07:19:55;4.78;;;1.88;;
23159;SDS011;11748;50.844;4.396;2023-03-14T07:22:27;4.60;;;1.63;;
23159;SDS011;11748;50.844;4.396;2023-03-14T07:24:55;3.83;;;1.45;;
23159;SDS011;11748;50.844;4.396;2023-03-14T07:27:21;1.80;;;1.20;;
23159;SDS011;11748;50.844;4.396;2023-03-14T07:32:21;2.78;;;1.73;;
23159;SDS011;11748;50.844;4.396;2023-03-14T07:37:37;4.35;;;2.13;;
23159;SDS011;11748;50.844;4.396;2023-03-14T07:40:09;6.20;;;2.40;;
23159;SDS011;11748;50.844;4.396;2023-03-14T07:48:17;6.82;;;2.17;;
23159;SDS011;11748;50.844;4.396;2023-03-14T07:50:48;3.42;;;2.20;;
23159;SDS011;11748;50.844;4.396;2023-03-14T07:53:18;4.32;;;2.72;;
23159;SDS011;11748;50.844;4.396;2023-03-14T07:55:48;5.65;;;3.00;;
23159;SDS011;11748;50.844;4.396;2023-03-14T08:03:30;4.78;;;3.15;;
23159;SDS011;11748;50.844;4.396;2023-03-14T08:06:14;4.88;;;3.08;;
23159;SDS011;11748;50.844;4.396;2023-03-14T08:08:45;8.52;;;4.05;;
23159;SDS011;11748;50.844;4.396;2023-03-14T08:11:12;8.32;;;3.47;;
23159;SDS011;11748;50.844;4.396;2023-03-14T08:13:48;6.55;;;3.75;;
23159;SDS011;11748;50.844;4.396;2023-03-14T08:16:16;7.50;;;3.53;;
23159;SDS011;11748;50.844;4.396;2023-03-14T08:18:45;4.65;;;3.50;;
23159;SDS011;11748;50.844;4.396;2023-03-14T08:21:19;4.78;;;3.60;;
23159;SDS011;11748;50.844;4.396;2023-03-14T08:23:57;8.77;;;3.47;;
23159;SDS011;11748;50.844;4.396;2023-03-14T08:28:52;6.97;;;3.38;;
23159;SDS011;11748;50.844;4.396;2023-03-14T08:33:50;3.13;;;2.20;;
23159;SDS011;11748;50.844;4.396;2023-03-14T08:36:26;4.70;;;2.53;;
23159;SDS011;11748;50.844;4.396;2023-03-14T08:43:55;5.72;;;2.45;;
23159;SDS011;11748;50.844;4.396;2023-03-14T08:52:12;4.55;;;2.50;;
23159;SDS011;11748;50.844;4.396;2023-03-14T08:54:42;5.72;;;2.67;;
23159;SDS011;11748;50.844;4.396;2023-03-14T08:59:38;5.93;;;2.78;;
23159;SDS011;11748;50.844;4.396;2023-03-14T09:02:14;3.92;;;2.00;;
23159;SDS011;11748;50.844;4.396;2023-03-14T09:04:49;7.55;;;3.60;;
23159;SDS011;11748;50.844;4.396;2023-03-14T09:07:18;5.10;;;2.72;;
23159;SDS011;11748;50.844;4.396;2023-03-14T09:09:47;5.47;;;3.10;;
23159;SDS011;11748;50.844;4.396;2023-03-14T09:12:14;6.80;;;2.63;;
23159;SDS011;11748;50.844;4.396;2023-03-14T09:14:43;5.85;;;3.03;;
23159;SDS011;11748;50.844;4.396;2023-03-14T09:19:41;8.50;;;2.80;;
23159;SDS011;11748;50.844;4.396;2023-03-14T09:22:13;12.80;;;2.95;;
23159;SDS011;11748;50.844;4.396;2023-03-14T09:27:16;7.78;;;2.85;;
23159;SDS011;11748;50.844;4.396;2023-03-14T09:29:48;11.82;;;3.05;;
23159;SDS011;11748;50.844;4.396;2023-03-14T09:32:15;12.00;;;2.70;;
23159;SDS011;11748;50.844;4.396;2023-03-14T09:34:44;8.13;;;2.63;;
23159;SDS011;11748;50.844;4.396;2023-03-14T09:37:20;11.63;;;3.33;;
23159;SDS011;11748;50.844;4.396;2023-03-14T09:39:48;13.45;;;2.97;;
23159;SDS011;11748;50.844;4.396;2023-03-14T09:42:17;6.30;;;2.60;;
23159;SDS011;11748;50.844;4.396;2023-03-14T09:47:58;8.50;;;2.67;;
23159;SDS011;11748;50.844;4.396;2023-03-14T09:50:27;10.55;;;2.90;;
23159;SDS011;11748;50.844;4.396;2023-03-14T09:55:36;9.93;;;2.75;;
23159;SDS011;11748;50.844;4.396;2023-03-14T09:58:35;11.85;;;2.92;;
23159;SDS011;11748;50.844;4.396;2023-03-14T10:00:55;5.85;;;2.17;;
23159;SDS011;11748;50.844;4.396;2023-03-14T10:03:32;10.95;;;2.20;;
23159;SDS011;11748;50.844;4.396;2023-03-14T10:06:00;12.63;;;3.13;;
23159;SDS011;11748;50.844;4.396;2023-03-14T10:08:32;10.30;;;2.58;;
23159;SDS011;11748;50.844;4.396;2023-03-14T10:11:01;7.20;;;2.50;;
23159;SDS011;11748;50.844;4.396;2023-03-14T10:13:27;11.70;;;2.58;;
23159;SDS011;11748;50.844;4.396;2023-03-14T10:18:37;15.82;;;2.55;;
23159;SDS011;11748;50.844;4.396;2023-03-14T10:21:27;8.55;;;2.63;;
23159;SDS011;11748;50.844;4.396;2023-03-14T10:23:55;8.52;;;1.80;;
23159;SDS011;11748;50.844;4.396;2023-03-14T10:26:55;8.95;;;2.30;;
23159;SDS011;11748;50.844;4.396;2023-03-14T10:29:30;7.57;;;1.88;;
23159;SDS011;11748;50.844;4.396;2023-03-14T10:31:59;7.18;;;1.63;;
23159;SDS011;11748;50.844;4.396;2023-03-14T10:34:32;5.63;;;1.73;;
23159;SDS011;11748;50.844;4.396;2023-03-14T10:43:22;7.70;;;2.40;;
23159;SDS011;11748;50.844;4.396;2023-03-14T10:51:50;5.13;;;1.88;;
23159;SDS011;11748;50.844;4.396;2023-03-14T10:54:20;6.20;;;1.65;;
23159;SDS011;11748;50.844;4.396;2023-03-14T11:04:55;7.93;;;2.25;;
23159;SDS011;11748;50.844;4.396;2023-03-14T11:07:33;7.55;;;2.00;;
23159;SDS011;11748;50.844;4.396;2023-03-14T11:21:13;6.68;;;1.60;;
23159;SDS011;11748;50.844;4.396;2023-03-14T11:32:36;3.38;;;1.00;;
23159;SDS011;11748;50.844;4.396;2023-03-14T11:40:51;2.08;;;0.70;;
23159;SDS011;11748;50.844;4.396;2023-03-14T11:43:20;4.35;;;0.80;;
23159;SDS011;11748;50.844;4.396;2023-03-14T11:46:06;1.50;;;0.95;;
23159;SDS011;11748;50.844;4.396;2023-03-14T11:56:50;2.92;;;1.10;;
23159;SDS011;11748;50.844;4.396;2023-03-14T12:02:47;4.38;;;1.05;;
23159;SDS011;11748;50.844;4.396;2023-03-14T12:11:44;2.00;;;1.10;;
23159;SDS011;11748;50.844;4.396;2023-03-14T12:16:55;1.20;;;0.80;;
23159;SDS011;11748;50.844;4.396;2023-03-14T12:19:42;2.30;;;1.20;;
23159;SDS011;11748;50.844;4.396;2023-03-14T12:25:03;4.82;;;1.05;;
23159;SDS011;11748;50.844;4.396;2023-03-14T12:27:42;1.60;;;1.08;;
23159;SDS011;11748;50.844;4.396;2023-03-14T12:30:15;1.70;;;0.90;;
23159;SDS011;11748;50.844;4.396;2023-03-14T12:45:34;5.32;;;1.63;;
23159;SDS011;11748;50.844;4.396;2023-03-14T12:50:37;4.22;;;2.13;;
23159;SDS011;11748;50.844;4.396;2023-03-14T12:59:51;3.78;;;1.52;;
23159;SDS011;11748;50.844;4.396;2023-03-14T13:02:24;1.65;;;1.30;;
23159;SDS011;11748;50.844;4.396;2023-03-14T13:05:04;1.80;;;1.50;;
23159;SDS011;11748;50.844;4.396;2023-03-14T13:15:35;2.05;;;1.30;;
23159;SDS011;11748;50.844;4.396;2023-03-14T13:18:10;4.35;;;1.77;;
23159;SDS011;11748;50.844;4.396;2023-03-14T13:20:40;3.88;;;1.73;;
23159;SDS011;11748;50.844;4.396;2023-03-14T13:26:19;3.90;;;2.20;;
23159;SDS011;11748;50.844;4.396;2023-03-14T13:28:47;7.00;;;2.20;;
23159;SDS011;11748;50.844;4.396;2023-03-14T13:31:21;7.95;;;2.33;;
23159;SDS011;11748;50.844;4.396;2023-03-14T13:34:01;8.15;;;2.17;;
23159;SDS011;11748;50.844;4.396;2023-03-14T13:39:04;7.55;;;2.30;;
23159;SDS011;11748;50.844;4.396;2023-03-14T13:41:40;13.70;;;2.50;;
23159;SDS011;11748;50.844;4.396;2023-03-14T13:44:10;12.45;;;3.25;;
23159;SDS011;11748;50.844;4.396;2023-03-14T13:54:28;12.95;;;3.13;;
23159;SDS011;11748;50.844;4.396;2023-03-14T13:59:39;20.50;;;2.65;;
23159;SDS011;11748;50.844;4.396;2023-03-14T14:07:13;21.05;;;3.47;;
23159;SDS011;11748;50.844;4.396;2023-03-14T14:09:55;17.88;;;3.90;;
23159;SDS011;11748;50.844;4.396;2023-03-14T14:15:27;14.77;;;3.47;;
23159;SDS011;11748;50.844;4.396;2023-03-14T14:18:00;15.60;;;3.10;;
23159;SDS011;11748;50.844;4.396;2023-03-14T14:20:37;18.17;;;2.65;;
23159;SDS011;11748;50.844;4.396;2023-03-14T14:23:15;17.23;;;2.72;;
23159;SDS011;11748;50.844;4.396;2023-03-14T14:25:46;11.95;;;2.58;;
23159;SDS011;11748;50.844;4.396;2023-03-14T14:28:17;12.60;;;2.30;;
23159;SDS011;11748;50.844;4.396;2023-03-14T14:33:54;12.32;;;2.28;;
23159;SDS011;11748;50.844;4.396;2023-03-14T14:36:30;11.45;;;2.50;;
23159;SDS011;11748;50.844;4.396;2023-03-14T14:39:05;9.85;;;2.08;;
23159;SDS011;11748;50.844;4.396;2023-03-14T14:41:50;9.07;;;2.33;;
23159;SDS011;11748;50.844;4.396;2023-03-14T14:44:28;8.00;;;1.73;;
23159;SDS011;11748;50.844;4.396;2023-03-14T14:49:51;10.20;;;1.73;;
23159;SDS011;11748;50.844;4.396;2023-03-14T14:52:40;8.05;;;2.20;;
23159;SDS011;11748;50.844;4.396;2023-03-14T14:55:20;4.53;;;1.17;;
23159;SDS011;11748;50.844;4.396;2023-03-14T14:57:54;5.25;;;1.05;;
23159;SDS011;11748;50.844;4.396;2023-03-14T15:00:31;5.25;;;1.15;;
23159;SDS011;11748;50.844;4.396;2023-03-14T15:03:10;3.15;;;1.00;;
23159;SDS011;11748;50.844;4.396;2023-03-14T15:11:41;1.90;;;0.80;;
23159;SDS011;11748;50.844;4.396;2023-03-14T15:19:51;2.40;;;0.77;;
23159;SDS011;11748;50.844;4.396;2023-03-14T15:25:04;2.67;;;0.90;;
23159;SDS011;11748;50.844;4.396;2023-03-14T15:27:31;3.30;;;0.90;;
23159;SDS011;11748;50.844;4.396;2023-03-14T15:30:02;2.15;;;0.60;;
23159;SDS011;11748;50.844;4.396;2023-03-14T15:32:35;8.18;;;1.17;;
23159;SDS011;11748;50.844;4.396;2023-03-14T15:35:07;3.72;;;0.90;;
23159;SDS011;11748;50.844;4.396;2023-03-14T15:43:13;9.45;;;2.45;;
23159;SDS011;11748;50.844;4.396;2023-03-14T15:45:40;2.75;;;0.90;;
23159;SDS011;11748;50.844;4.396;2023-03-14T15:48:25;2.42;;;0.82;;
23159;SDS011;11748;50.844;4.396;2023-03-14T15:50:57;2.22;;;0.77;;
23159;SDS011;11748;50.844;4.396;2023-03-14T15:53:23;1.70;;;0.80;;
23159;SDS011;11748;50.844;4.396;2023-03-14T15:55:56;3.28;;;1.00;;
23159;SDS011;11748;50.844;4.396;2023-03-14T16:01:07;3.13;;;1.27;;
23159;SDS011;11748;50.844;4.396;2023-03-14T16:03:37;2.58;;;0.90;;
23159;SDS011;11748;50.844;4.396;2023-03-14T16:06:09;2.17;;;0.82;;
23159;SDS011;11748;50.844;4.396;2023-03-14T16:08:37;2.85;;;0.80;;
23159;SDS011;11748;50.844;4.396;2023-03-14T16:11:05;5.45;;;1.10;;
23159;SDS011;11748;50.844;4.396;2023-03-14T16:13:31;3.05;;;1.00;;
23159;SDS011;11748;50.844;4.396;2023-03-14T16:16:01;3.90;;;0.90;;
23159;SDS011;11748;50.844;4.396;2023-03-14T16:18:42;3.10;;;1.00;;
23159;SDS011;11748;50.844;4.396;2023-03-14T16:21:11;1.80;;;1.00;;
23159;SDS011;11748;50.844;4.396;2023-03-14T16:23:40;2.55;;;1.15;;
23159;SDS011;11748;50.844;4.396;2023-03-14T16:26:08;2.75;;;1.20;;
23159;SDS011;11748;50.844;4.396;2023-03-14T16:28:38;5.32;;;0.95;;
23159;SDS011;11748;50.844;4.396;2023-03-14T16:34:05;8.05;;;1.52;;
23159;SDS011;11748;50.844;4.396;2023-03-14T16:36:31;4.90;;;1.70;;
23159;SDS011;11748;50.844;4.396;2023-03-14T16:39:00;4.82;;;1.55;;
23159;SDS011;11748;50.844;4.396;2023-03-14T16:41:26;7.15;;;1.80;;
23159;SDS011;11748;50.844;4.396;2023-03-14T16:43:58;7.65;;;1.75;;
23159;SDS011;11748;50.844;4.396;2023-03-14T16:46:28;6.05;;;1.63;;
23159;SDS011;11748;50.844;4.396;2023-03-14T16:51:24;10.77;;;2.20;;
23159;SDS011;11748;50.844;4.396;2023-03-14T16:53:58;8.45;;;2.00;;
23159;SDS011;11748;50.844;4.396;2023-03-14T17:02:04;8.75;;;1.83;;
23159;SDS011;11748;50.844;4.396;2023-03-14T17:04:33;9.55;;;2.13;;
23159;SDS011;11748;50.844;4.396;2023-03-14T17:07:02;12.90;;;2.35;;
23159;SDS011;11748;50.844;4.396;2023-03-14T17:11:57;11.25;;;2.30;;
23159;SDS011;11748;50.844;4.396;2023-03-14T17:14:26;10.20;;;3.05;;
23159;SDS011;11748;50.844;4.396;2023-03-14T17:16:53;14.05;;;2.47;;
23159;SDS011;11748;50.844;4.396;2023-03-14T17:24:59;8.88;;;2.20;;
23159;SDS011;11748;50.844;4.396;2023-03-14T17:27:28;13.02;;;2.45;;
23159;SDS011;11748;50.844;4.396;2023-03-14T17:36:15;17.80;;;2.60;;
23159;SDS011;11748;50.844;4.396;2023-03-14T17:38:48;9.40;;;2.22;;
23159;SDS011;11748;50.844;4.396;2023-03-14T17:41:14;15.80;;;2.45;;
23159;SDS011;11748;50.844;4.396;2023-03-14T17:43:43;11.38;;;2.45;;
23159;SDS011;11748;50.844;4.396;2023-03-14T17:46:10;15.95;;;2.72;;
23159;SDS011;11748;50.844;4.396;2023-03-14T17:48:44;9.38;;;2.42;;
23159;SDS011;11748;50.844;4.396;2023-03-14T17:53:43;16.45;;;2.42;;
23159;SDS011;11748;50.844;4.396;2023-03-14T17:56:10;11.13;;;2.35;;
23159;SDS011;11748;50.844;4.396;2023-03-14T17:58:37;9.48;;;1.98;;
23159;SDS011;11748;50.844;4.396;2023-03-14T18:01:14;10.77;;;2.80;;
23159;SDS011;11748;50.844;4.396;2023-03-14T18:03:42;17.23;;;2.50;;
23159;SDS011;11748;50.844;4.396;2023-03-14T18:06:11;14.32;;;2.47;;
23159;SDS011;11748;50.844;4.396;2023-03-14T18:08:39;13.02;;;2.80;;
23159;SDS011;11748;50.844;4.396;2023-03-14T18:11:25;11.60;;;2.63;;
23159;SDS011;11748;50.844;4.396;2023-03-14T18:13:51;14.13;;;3.00;;
23159;SDS011;11748;50.844;4.396;2023-03-14T18:19:33;14.60;;;3.33;;
23159;SDS011;11748;50.844;4.396;2023-03-14T18:25:01;13.32;;;2.70;;
23159;SDS011;11748;50.844;4.396;2023-03-14T18:27:28;10.57;;;2.63;;
23159;SDS011;11748;50.844;4.396;2023-03-14T18:29:55;17.25;;;3.20;;
23159;SDS011;11748;50.844;4.396;2023-03-14T18:34:51;9.68;;;2.70;;
23159;SDS011;11748;50.844;4.396;2023-03-14T18:37:22;7.13;;;2.42;;
23159;SDS011;11748;50.844;4.396;2023-03-14T18:39:51;15.05;;;2.70;;
23159;SDS011;11748;50.844;4.396;2023-03-14T18:42:20;8.55;;;2.95;;
23159;SDS011;11748;50.844;4.396;2023-03-14T18:44:47;10.02;;;2.80;;
23159;SDS011;11748;50.844;4.396;2023-03-14T18:47:13;7.43;;;2.88;;
23159;SDS011;11748;50.844;4.396;2023-03-14T18:49:39;7.63;;;2.45;;
23159;SDS011;11748;50.844;4.396;2023-03-14T18:52:11;8.93;;;2.65;;
23159;SDS011;11748;50.844;4.396;2023-03-14T18:54:39;8.38;;;2.70;;
23159;SDS011;11748;50.844;4.396;2023-03-14T18:57:06;7.63;;;2.70;;
23159;SDS011;11748;50.844;4.396;2023-03-14T18:59:35;7.88;;;3.28;;
23159;SDS011;11748;50.844;4.396;2023-03-14T19:04:51;9.20;;;2.85;;
23159;SDS011;11748;50.844;4.396;2023-03-14T19:07:20;7.13;;;3.15;;
23159;SDS011;11748;50.844;4.396;2023-03-14T19:09:52;10.15;;;2.67;;
23159;SDS011;11748;50.844;4.396;2023-03-14T19:14:53;9.00;;;3.70;;
23159;SDS011;11748;50.844;4.396;2023-03-14T19:17:28;11.35;;;3.22;;
23159;SDS011;11748;50.844;4.396;2023-03-14T19:19:55;9.00;;;3.10;;
23159;SDS011;11748;50.844;4.396;2023-03-14T19:22:27;10.88;;;3.15;;
23159;SDS011;11748;50.844;4.396;2023-03-14T19:24:55;13.45;;;3.40;;
23159;SDS011;11748;50.844;4.396;2023-03-14T19:27:24;7.13;;;3.33;;
23159;SDS011;11748;50.844;4.396;2023-03-14T19:29:50;10.07;;;3.38;;
23159;SDS011;11748;50.844;4.396;2023-03-14T19:32:16;9.02;;;3.13;;
23159;SDS011;11748;50.844;4.396;2023-03-14T19:34:49;9.73;;;3.63;;
23159;SDS011;11748;50.844;4.396;2023-03-14T19:37:16;7.57;;;3.53;;
23159;SDS011;11748;50.844;4.396;2023-03-14T19:42:14;9.30;;;3.72;;
23159;SDS011;11748;50.844;4.396;2023-03-14T19:44:39;7.50;;;3.75;;
23159;SDS011;11748;50.844;4.396;2023-03-14T19:47:11;10.07;;;3.30;;
23159;SDS011;11748;50.844;4.396;2023-03-14T19:49:38;6.90;;;3.22;;
23159;SDS011;11748;50.844;4.396;2023-03-14T19:52:05;10.40;;;3.38;;
23159;SDS011;11748;50.844;4.396;2023-03-14T19:59:35;16.08;;;3.80;;
23159;SDS011;11748;50.844;4.396;2023-03-14T20:02:36;8.50;;;3.35;;
23159;SDS011;11748;50.844;4.396;2023-03-14T20:04:56;9.32;;;3.42;;
23159;SDS011;11748;50.844;4.396;2023-03-14T20:07:32;12.35;;;3.50;;
23159;SDS011;11748;50.844;4.396;2023-03-14T20:10:06;9.75;;;3.75;;
23159;SDS011;11748;50.844;4.396;2023-03-14T20:12:44;10.48;;;3.70;;
23159;SDS011;11748;50.844;4.396;2023-03-14T20:15:16;9.00;;;3.60;;
23159;SDS011;11748;50.844;4.396;2023-03-14T20:17:48;15.98;;;4.15;;
23159;SDS011;11748;50.844;4.396;2023-03-14T20:20:18;14.00;;;3.90;;
23159;SDS011;11748;50.844;4.396;2023-03-14T20:22:44;10.93;;;3.63;;
23159;SDS011;11748;50.844;4.396;2023-03-14T20:30:33;11.23;;;3.38;;
23159;SDS011;11748;50.844;4.396;2023-03-14T20:35:33;10.15;;;3.90;;
23159;SDS011;11748;50.844;4.396;2023-03-14T20:38:02;12.98;;;3.90;;
23159;SDS011;11748;50.844;4.396;2023-03-14T20:40:29;12.60;;;4.38;;
23159;SDS011;11748;50.844;4.396;2023-03-14T20:42:59;15.40;;;5.20;;
23159;SDS011;11748;50.844;4.396;2023-03-14T20:50:27;13.32;;;4.50;;
23159;SDS011;11748;50.844;4.396;2023-03-14T20:52:53;14.23;;;3.88;;
23159;SDS011;11748;50.844;4.396;2023-03-14T21:00:39;9.68;;;4.38;;
23159;SDS011;11748;50.844;4.396;2023-03-14T21:03:09;8.82;;;3.28;;
23159;SDS011;11748;50.844;4.396;2023-03-14T21:05:35;8.88;;;2.70;;
23159;SDS011;11748;50.844;4.396;2023-03-14T21:08:03;9.57;;;3.58;;
23159;SDS011;11748;50.844;4.396;2023-03-14T21:10:33;8.27;;;2.97;;
23159;SDS011;11748;50.844;4.396;2023-03-14T21:15:30;9.02;;;2.42;;
23159;SDS011;11748;50.844;4.396;2023-03-14T21:17:56;5.32;;;2.20;;
23159;SDS011;11748;50.844;4.396;2023-03-14T21:20:33;8.32;;;2.55;;
23159;SDS011;11748;50.844;4.396;2023-03-14T21:23:03;5.88;;;1.90;;
23159;SDS011;11748;50.844;4.396;2023-03-14T21:28:00;4.20;;;1.58;;
23159;SDS011;11748;50.844;4.396;2023-03-14T21:30:35;4.57;;;1.88;;
23159;SDS011;11748;50.844;4.396;2023-03-14T21:33:02;5.07;;;2.03;;
23159;SDS011;11748;50.844;4.396;2023-03-14T21:35:28;4.03;;;1.50;;
23159;SDS011;11748;50.844;4.396;2023-03-14T21:40:58;3.85;;;2.10;;
23159;SDS011;11748;50.844;4.396;2023-03-14T21:43:35;3.63;;;2.40;;
23159;SDS011;11748;50.844;4.396;2023-03-14T21:46:03;4.53;;;2.55;;
23159;SDS011;11748;50.844;4.396;2023-03-14T21:48:33;7.10;;;2.50;;
23159;SDS011;11748;50.844;4.396;2023-03-14T21:51:05;8.60;;;3.65;;
23159;SDS011;11748;50.844;4.396;2023-03-14T21:53:32;6.55;;;3.17;;
23159;SDS011;11748;50.844;4.396;2023-03-14T21:55:59;6.00;;;2.75;;